Time;durP1;ratioP1;P1;durP2;ratioP2;P2;SDS_P1;SDS_P2;PMS_P1;PMS_P2;Temp;Humidity;BMP_temperature;BMP_pressure;BME280_temperature;BME280_humidity;BME280_pressure;Samples;Min_cycle;Max_cycle;Signal;HPM_P1;HPM_P2
2023/09/09 00:01:07;;;;;;;28.15;26.05;;;16.90;99.90;;;;;;6157737;23;20354;-76
2023/09/09 00:03:34;;;;;;;29.23;26.77;;;16.90;99.90;;;;;;6157401;23;20013;-76
2023/09/09 00:06:08;;;;;;;28.92;26.67;;;16.80;99.90;;;;;;6181592;23;20013;-76
2023/09/09 00:08:33;;;;;;;30.50;28.08;;;16.80;99.90;;;;;;6157157;23;20040;-76
2023/09/09 00:10:59;;;;;;;36.05;32.78;;;16.80;99.90;;;;;;6182443;23;20457;-76
2023/09/09 00:13:25;;;;;;;29.40;27.10;;;16.70;99.90;;;;;;6156749;23;20013;-76
2023/09/09 00:15:54;;;;;;;31.85;28.95;;;16.70;99.90;;;;;;6157643;23;20047;-76
2023/09/09 00:18:20;;;;;;;26.67;24.27;;;16.70;99.90;;;;;;6157107;23;20013;-77
2023/09/09 00:20:45;;;;;;;26.15;23.58;;;16.70;99.90;;;;;;6157106;23;20019;-76
2023/09/09 00:23:11;;;;;;;39.83;36.25;;;16.70;99.90;;;;;;6132072;23;20044;-77
2023/09/09 00:25:43;;;;;;;33.25;30.42;;;16.60;99.90;;;;;;6157355;23;20020;-77
2023/09/09 00:28:11;;;;;;;29.95;27.58;;;16.60;99.90;;;;;;6157161;23;20100;-77
2023/09/09 00:30:37;;;;;;;39.10;35.95;;;16.60;99.90;;;;;;6157259;23;20017;-76
2023/09/09 00:33:03;;;;;;;37.65;34.75;;;16.60;99.90;;;;;;6156858;23;20013;-76
2023/09/09 00:35:31;;;;;;;33.00;29.90;;;16.60;99.90;;;;;;6132344;23;20021;-76
2023/09/09 00:37:57;;;;;;;33.05;30.20;;;16.60;99.90;;;;;;6157046;23;20063;-76
2023/09/09 00:40:23;;;;;;;30.75;28.25;;;16.60;99.90;;;;;;6182055;23;20012;-76
2023/09/09 00:42:48;;;;;;;33.50;30.17;;;16.60;99.90;;;;;;6156605;23;20067;-76
2023/09/09 00:45:15;;;;;;;29.48;26.70;;;16.60;99.90;;;;;;6156702;23;20025;-76
2023/09/09 00:47:41;;;;;;;29.33;26.75;;;16.50;99.90;;;;;;6132343;23;20013;-76
2023/09/09 00:50:10;;;;;;;31.75;29.08;;;16.50;99.90;;;;;;6182108;23;20020;-76
2023/09/09 00:52:39;;;;;;;36.55;33.50;;;16.40;99.90;;;;;;6157339;23;20036;-76
2023/09/09 00:55:06;;;;;;;33.97;30.70;;;16.40;99.90;;;;;;6156326;23;20009;-76
2023/09/09 00:57:32;;;;;;;30.55;27.95;;;16.40;99.90;;;;;;6156715;23;20024;-76
2023/09/09 01:00:00;;;;;;;42.55;38.80;;;16.30;99.90;;;;;;6156977;23;20019;-76
2023/09/09 01:02:25;;;;;;;39.42;35.72;;;16.40;99.90;;;;;;6157497;23;20024;-76
2023/09/09 01:04:51;;;;;;;38.55;35.30;;;16.30;99.90;;;;;;6157388;23;20009;-76
2023/09/09 01:07:16;;;;;;;34.88;32.03;;;16.30;99.90;;;;;;6156099;23;20454;-77
2023/09/09 01:09:42;;;;;;;30.83;27.80;;;16.30;99.90;;;;;;6156152;23;20010;-76
2023/09/09 01:12:11;;;;;;;35.25;31.50;;;16.30;99.90;;;;;;6156061;23;20017;-77
2023/09/09 01:14:38;;;;;;;30.20;27.95;;;16.20;99.90;;;;;;6157271;23;20390;-76
2023/09/09 01:17:05;;;;;;;35.65;32.65;;;16.20;99.90;;;;;;6156410;23;20083;-76
2023/09/09 01:19:31;;;;;;;31.52;28.75;;;16.20;99.90;;;;;;6157082;23;20346;-76
2023/09/09 01:22:03;;;;;;;32.00;29.05;;;16.20;99.90;;;;;;6157156;23;20017;-77
2023/09/09 01:24:28;;;;;;;32.92;30.23;;;16.20;99.90;;;;;;6156885;23;20009;-76
2023/09/09 01:26:54;;;;;;;35.42;32.55;;;16.20;99.90;;;;;;6156002;23;20031;-76
2023/09/09 01:29:19;;;;;;;34.88;32.20;;;16.10;99.90;;;;;;6156501;23;20013;-76
2023/09/09 01:31:45;;;;;;;36.53;33.63;;;16.10;99.90;;;;;;6134361;23;20088;-76
2023/09/09 01:34:11;;;;;;;31.10;28.25;;;16.10;99.90;;;;;;6183905;23;20044;-76
2023/09/09 01:36:36;;;;;;;42.65;38.60;;;16.10;99.90;;;;;;6183130;23;20013;-76
2023/09/09 01:39:02;;;;;;;29.15;26.35;;;16.00;99.90;;;;;;6158069;23;20021;-76
2023/09/09 01:41:28;;;;;;;32.53;30.00;;;16.00;99.90;;;;;;6157990;23;20013;-76
2023/09/09 01:43:53;;;;;;;35.50;32.17;;;15.90;99.90;;;;;;6158918;23;20024;-76
2023/09/09 01:46:19;;;;;;;35.42;32.63;;;16.00;99.90;;;;;;6182750;23;20457;-76
2023/09/09 01:48:44;;;;;;;45.30;39.63;;;15.90;99.90;;;;;;6158481;23;20354;-76
2023/09/09 01:51:10;;;;;;;34.95;31.92;;;15.90;99.90;;;;;;6158891;23;20301;-76
2023/09/09 01:53:35;;;;;;;33.08;29.50;;;15.90;99.90;;;;;;6158865;23;20015;-76
2023/09/09 01:56:01;;;;;;;33.70;31.20;;;15.90;99.90;;;;;;6158432;23;20016;-76
2023/09/09 01:58:27;;;;;;;33.30;30.00;;;15.80;99.90;;;;;;6157732;23;20063;-76
2023/09/09 02:00:52;;;;;;;34.22;30.92;;;15.90;99.90;;;;;;6158802;23;20024;-76
2023/09/09 02:05:43;;;;;;;58.92;53.85;;;15.80;99.90;;;;;;6174203;23;20040;-76
2023/09/09 02:08:09;;;;;;;57.22;49.28;;;15.80;99.90;;;;;;6158835;23;20013;-76
2023/09/09 02:10:34;;;;;;;42.22;38.05;;;15.80;99.90;;;;;;6134102;23;20013;-76
2023/09/09 02:13:00;;;;;;;40.05;36.00;;;15.90;99.90;;;;;;6158799;23;20016;-76
2023/09/09 02:15:25;;;;;;;37.08;34.00;;;15.80;99.90;;;;;;6182469;23;20016;-76
2023/09/09 02:17:51;;;;;;;34.08;30.90;;;15.80;99.90;;;;;;6158544;23;20013;-76
2023/09/09 02:20:17;;;;;;;32.90;30.20;;;15.80;99.90;;;;;;6159118;23;20017;-76
2023/09/09 02:22:42;;;;;;;37.53;33.60;;;15.80;99.90;;;;;;6159002;23;20009;-76
2023/09/09 02:25:08;;;;;;;39.20;36.15;;;15.70;99.90;;;;;;6182983;23;20064;-76
2023/09/09 02:27:34;;;;;;;85.90;76.63;;;15.70;99.90;;;;;;6182560;23;20020;-76
2023/09/09 02:30:01;;;;;;;49.78;44.85;;;15.70;99.90;;;;;;6133615;23;20465;-76
2023/09/09 02:32:26;;;;;;;56.60;51.78;;;15.70;99.90;;;;;;6157707;23;20013;-76
2023/09/09 02:34:52;;;;;;;44.38;40.38;;;15.70;99.90;;;;;;6157985;23;20018;-76
2023/09/09 02:37:19;;;;;;;38.92;35.80;;;15.70;99.90;;;;;;6133687;23;20468;-76
2023/09/09 02:39:46;;;;;;;63.05;56.00;;;15.70;99.90;;;;;;6157653;23;20009;-76
2023/09/09 02:42:16;;;;;;;44.92;41.38;;;15.70;99.90;;;;;;6157873;23;20031;-76
2023/09/09 02:44:42;;;;;;;61.50;50.67;;;15.60;99.90;;;;;;6133591;23;20012;-76
2023/09/09 02:47:09;;;;;;;45.97;42.10;;;15.60;99.90;;;;;;6158007;23;20097;-76
2023/09/09 02:49:38;;;;;;;48.90;44.80;;;15.60;99.90;;;;;;6158317;23;20013;-76
2023/09/09 02:52:05;;;;;;;46.70;42.50;;;15.60;99.90;;;;;;6133320;23;20013;-76
2023/09/09 02:54:31;;;;;;;44.95;41.25;;;15.60;99.90;;;;;;6157852;23;20032;-76
2023/09/09 02:56:56;;;;;;;55.90;51.15;;;15.60;99.90;;;;;;6133100;23;20013;-76
2023/09/09 02:59:23;;;;;;;52.92;48.47;;;15.60;99.90;;;;;;6158226;23;20048;-76
2023/09/09 03:01:49;;;;;;;63.65;58.10;;;15.60;99.90;;;;;;6157640;23;20035;-76
2023/09/09 03:04:14;;;;;;;65.40;59.75;;;15.60;99.90;;;;;;6133625;23;20080;-76
2023/09/09 03:06:40;;;;;;;67.57;61.72;;;15.60;99.90;;;;;;6157409;23;20449;-76
2023/09/09 03:09:06;;;;;;;110.00;95.97;;;15.60;99.90;;;;;;6133052;23;20100;-76
2023/09/09 03:11:32;;;;;;;66.85;60.95;;;15.60;99.90;;;;;;6157603;23;20013;-76
2023/09/09 03:13:58;;;;;;;73.95;67.50;;;15.60;99.90;;;;;;6158133;23;20520;-76
2023/09/09 03:16:23;;;;;;;65.80;60.47;;;15.70;99.90;;;;;;6157633;23;20013;-76
2023/09/09 03:18:49;;;;;;;83.28;75.35;;;15.60;99.90;;;;;;6158141;23;20426;-76
2023/09/09 03:21:15;;;;;;;72.10;65.93;;;15.70;99.90;;;;;;6157964;23;20013;-76
2023/09/09 03:23:40;;;;;;;78.22;71.60;;;15.70;99.90;;;;;;6182677;23;20013;-76
2023/09/09 03:26:06;;;;;;;71.88;65.70;;;15.70;99.90;;;;;;6157521;23;20091;-76
2023/09/09 03:28:31;;;;;;;72.20;66.22;;;15.70;99.90;;;;;;6157915;23;20024;-76
2023/09/09 03:30:59;;;;;;;109.05;84.18;;;15.70;99.90;;;;;;6133465;23;20009;-76
2023/09/09 03:33:27;;;;;;;71.93;65.82;;;15.70;99.90;;;;;;6133002;23;20013;-76
2023/09/09 03:35:53;;;;;;;85.47;77.82;;;15.70;99.90;;;;;;6157155;23;20093;-76
2023/09/09 03:38:18;;;;;;;75.78;69.38;;;15.70;99.90;;;;;;6157968;23;20013;-76
2023/09/09 03:40:44;;;;;;;87.45;79.50;;;15.70;99.90;;;;;;6157993;23;20013;-76
2023/09/09 03:43:11;;;;;;;70.30;64.43;;;15.70;99.90;;;;;;6157412;23;20020;-76
2023/09/09 03:45:37;;;;;;;68.50;62.80;;;15.70;99.90;;;;;;6157336;23;20481;-76
2023/09/09 03:48:06;;;;;;;77.70;70.97;;;15.70;99.90;;;;;;6132894;23;20009;-76
2023/09/09 03:50:33;;;;;;;75.65;69.10;;;15.70;99.90;;;;;;6133126;23;20636;-76
2023/09/09 03:52:59;;;;;;;68.63;62.88;;;15.70;99.90;;;;;;6157144;23;20377;-76
2023/09/09 03:55:25;;;;;;;89.78;81.90;;;15.70;99.90;;;;;;6157470;23;20067;-76
2023/09/09 03:57:51;;;;;;;99.60;90.28;;;15.70;99.90;;;;;;6157546;23;20019;-76
2023/09/09 04:00:17;;;;;;;90.75;82.55;;;15.70;99.90;;;;;;6157267;23;20021;-76
2023/09/09 04:02:43;;;;;;;112.10;101.68;;;15.70;99.90;;;;;;6157325;23;20013;-76
2023/09/09 04:05:08;;;;;;;89.93;81.97;;;15.70;99.90;;;;;;6157328;23;20071;-76
2023/09/09 04:07:35;;;;;;;98.18;89.18;;;15.70;99.90;;;;;;6157286;23;20024;-76
2023/09/09 04:10:05;;;;;;;102.70;91.95;;;15.70;99.90;;;;;;6157650;23;20109;-76
2023/09/09 04:12:31;;;;;;;87.90;80.28;;;15.70;99.90;;;;;;6157009;23;20053;-75
2023/09/09 04:14:57;;;;;;;73.07;66.72;;;15.70;99.90;;;;;;6157361;23;20009;-75
2023/09/09 04:17:22;;;;;;;137.90;101.88;;;15.70;99.90;;;;;;6157187;23;20044;-76
2023/09/09 04:19:48;;;;;;;73.50;67.32;;;15.70;99.90;;;;;;6157644;23;20084;-76
2023/09/09 04:22:13;;;;;;;90.55;82.80;;;15.70;99.90;;;;;;6157345;23;20013;-76
2023/09/09 04:24:39;;;;;;;66.43;60.97;;;15.70;99.90;;;;;;6157065;23;20013;-76
2023/09/09 04:27:05;;;;;;;65.13;59.75;;;15.70;99.90;;;;;;6157077;23;20010;-76
2023/09/09 04:29:30;;;;;;;60.50;55.67;;;15.60;99.90;;;;;;6132783;23;20015;-76
2023/09/09 04:31:58;;;;;;;59.35;54.22;;;15.60;99.90;;;;;;6157181;23;20029;-76
2023/09/09 04:34:24;;;;;;;65.53;59.25;;;15.50;99.90;;;;;;6157461;23;20009;-76
2023/09/09 04:36:50;;;;;;;49.38;45.45;;;15.40;99.90;;;;;;6157010;23;20505;-76
2023/09/09 04:39:15;;;;;;;53.92;49.60;;;15.40;99.90;;;;;;6157150;23;20345;-76
2023/09/09 04:41:42;;;;;;;67.97;62.25;;;15.40;99.90;;;;;;6157554;23;20481;-76
2023/09/09 04:44:08;;;;;;;67.63;61.63;;;15.30;99.90;;;;;;6157209;23;20024;-76
2023/09/09 04:46:34;;;;;;;60.45;55.58;;;15.20;99.90;;;;;;6156828;23;20013;-76
2023/09/09 04:49:00;;;;;;;75.47;67.18;;;15.30;99.90;;;;;;6157059;23;20036;-76
2023/09/09 04:51:25;;;;;;;66.63;60.78;;;15.20;99.90;;;;;;6157430;23;20009;-76
2023/09/09 04:53:51;;;;;;;83.00;75.18;;;15.20;99.90;;;;;;6157109;23;20009;-76
2023/09/09 04:56:16;;;;;;;63.17;57.83;;;15.20;99.90;;;;;;6181679;23;20013;-76
2023/09/09 04:58:42;;;;;;;71.63;65.25;;;15.20;99.90;;;;;;6182042;23;20117;-76
2023/09/09 05:01:09;;;;;;;76.47;68.82;;;15.20;99.90;;;;;;6157371;23;20013;-76
2023/09/09 05:03:34;;;;;;;86.05;76.63;;;15.10;99.90;;;;;;6156806;23;20015;-76
2023/09/09 05:06:00;;;;;;;82.95;74.75;;;15.10;99.90;;;;;;6133886;23;20493;-76
2023/09/09 05:08:26;;;;;;;67.43;61.63;;;15.10;99.90;;;;;;6159283;23;20102;-76
2023/09/09 05:10:52;;;;;;;61.55;56.40;;;15.10;99.90;;;;;;6159378;23;20012;-76
2023/09/09 05:13:17;;;;;;;85.38;76.20;;;15.10;99.90;;;;;;6158680;23;20016;-76
2023/09/09 05:15:43;;;;;;;171.60;121.15;;;15.10;99.90;;;;;;6134209;23;20005;-76
2023/09/09 05:18:08;;;;;;;85.35;77.05;;;15.10;99.90;;;;;;6159061;23;20096;-76
2023/09/09 05:20:34;;;;;;;69.03;63.40;;;15.10;99.90;;;;;;6184068;23;20013;-76
2023/09/09 05:22:59;;;;;;;66.32;60.92;;;15.10;99.90;;;;;;6159236;23;20521;-76
2023/09/09 05:25:25;;;;;;;78.57;71.95;;;15.10;99.90;;;;;;6158900;23;20009;-76
2023/09/09 05:27:51;;;;;;;87.25;79.43;;;15.10;99.90;;;;;;6158671;23;20346;-76
2023/09/09 05:30:17;;;;;;;70.80;64.38;;;15.20;99.90;;;;;;6158821;23;20071;-76
2023/09/09 05:32:42;;;;;;;53.20;49.00;;;15.20;99.90;;;;;;6183287;23;20013;-76
2023/09/09 05:35:11;;;;;;;66.45;61.05;;;15.10;99.90;;;;;;6158759;23;20442;-76
2023/09/09 05:37:36;;;;;;;64.68;59.08;;;15.20;99.90;;;;;;6158881;23;20059;-76
2023/09/09 05:40:02;;;;;;;70.28;63.95;;;15.20;99.90;;;;;;6158475;23;20100;-76
2023/09/09 05:42:28;;;;;;;60.70;55.53;;;15.20;99.90;;;;;;6158957;23;20168;-76
2023/09/09 05:44:54;;;;;;;140.35;119.70;;;15.20;99.90;;;;;;6159387;23;20021;-78
2023/09/09 05:47:20;;;;;;;61.90;56.80;;;15.20;99.90;;;;;;6160869;23;20013;-79
2023/09/09 05:49:45;;;;;;;66.07;60.72;;;15.20;99.90;;;;;;6162699;23;20015;-80
2023/09/09 05:52:12;;;;;;;85.82;78.63;;;15.20;99.90;;;;;;6139129;23;20041;-81
2023/09/09 05:54:38;;;;;;;73.55;67.57;;;15.30;99.90;;;;;;6165266;23;20009;-81
2023/09/09 05:57:04;;;;;;;58.88;54.38;;;15.40;99.90;;;;;;6163251;23;20016;-79
2023/09/09 05:59:30;;;;;;;58.97;54.40;;;15.30;99.90;;;;;;6161326;23;20465;-80
2023/09/09 06:01:55;;;;;;;76.95;70.60;;;15.40;99.90;;;;;;6164380;23;20593;-80
2023/09/09 06:04:21;;;;;;;91.95;84.28;;;15.40;99.90;;;;;;6189849;23;20024;-80
2023/09/09 06:06:47;;;;;;;127.32;103.88;;;15.40;99.90;;;;;;6141256;23;20465;-80
2023/09/09 06:09:13;;;;;;;197.57;136.48;;;15.50;99.90;;;;;;6168153;23;20350;-81
2023/09/09 06:11:38;;;;;;;132.43;113.43;;;15.50;99.90;;;;;;6189917;23;20032;-80
2023/09/09 06:14:04;;;;;;;200.45;149.10;;;15.60;99.90;;;;;;6143567;23;20092;-80
2023/09/09 06:16:29;;;;;;;128.13;114.90;;;15.70;99.90;;;;;;6166414;23;20013;-80
2023/09/09 06:18:55;;;;;;;152.93;132.68;;;15.70;99.90;;;;;;6167052;23;20028;-80
2023/09/09 06:21:21;;;;;;;132.55;119.97;;;15.80;99.90;;;;;;6165835;23;20013;-79
2023/09/09 06:23:47;;;;;;;144.50;128.85;;;15.90;99.90;;;;;;6165347;23;20017;-80
2023/09/09 06:26:12;;;;;;;129.57;118.72;;;16.00;99.90;;;;;;6136840;23;20067;-77
2023/09/09 06:28:38;;;;;;;135.93;124.55;;;16.10;99.90;;;;;;6132845;23;20045;-76
2023/09/09 06:31:03;;;;;;;120.00;110.18;;;16.20;99.90;;;;;;6158295;23;20404;-76
2023/09/09 06:33:29;;;;;;;125.95;115.18;;;16.30;99.90;;;;;;6157117;23;20067;-76
2023/09/09 06:35:55;;;;;;;240.88;173.52;;;16.30;99.90;;;;;;6156641;23;20043;-76
2023/09/09 06:38:22;;;;;;;118.47;108.75;;;16.50;99.90;;;;;;6183327;23;20072;-76
2023/09/09 06:40:48;;;;;;;210.70;187.82;;;16.50;99.90;;;;;;6133867;23;20319;-76
2023/09/09 06:43:19;;;;;;;141.90;127.57;;;16.60;99.90;;;;;;6158416;23;20024;-76
2023/09/09 06:45:45;;;;;;;130.88;119.85;;;16.70;99.90;;;;;;6158122;23;20092;-76
2023/09/09 06:48:16;;;;;;;162.75;145.57;;;16.80;99.90;;;;;;6157889;23;20045;-75
2023/09/09 06:50:45;;;;;;;135.48;123.63;;;16.90;99.90;;;;;;6158505;23;20009;-76
2023/09/09 06:53:11;;;;;;;103.00;94.90;;;17.00;99.90;;;;;;6157699;23;20029;-76
2023/09/09 06:55:36;;;;;;;123.78;113.47;;;17.10;99.90;;;;;;6158083;23;20415;-76
2023/09/09 06:58:03;;;;;;;142.55;129.85;;;17.20;99.90;;;;;;6183119;23;20027;-76
2023/09/09 07:00:29;;;;;;;121.13;111.10;;;17.30;99.90;;;;;;6158354;23;20068;-76
2023/09/09 07:02:55;;;;;;;182.25;163.35;;;17.40;99.90;;;;;;6157919;23;20017;-76
2023/09/09 07:05:20;;;;;;;207.07;184.50;;;17.40;99.90;;;;;;6157921;23;20020;-76
2023/09/09 07:07:46;;;;;;;151.60;137.93;;;17.60;99.90;;;;;;6158120;23;20013;-76
2023/09/09 07:10:12;;;;;;;380.83;241.60;;;17.70;99.90;;;;;;6158300;23;20024;-76
2023/09/09 07:12:38;;;;;;;177.25;159.52;;;17.80;99.90;;;;;;6158275;23;20009;-76
2023/09/09 07:15:04;;;;;;;152.57;136.32;;;17.90;99.90;;;;;;6157873;23;20474;-76
2023/09/09 07:17:30;;;;;;;138.35;125.90;;;18.00;99.90;;;;;;6157429;23;20017;-76
2023/09/09 07:19:55;;;;;;;142.02;128.73;;;18.10;99.90;;;;;;6157504;23;20009;-76
2023/09/09 07:22:21;;;;;;;161.65;145.55;;;18.20;99.90;;;;;;6182860;23;20024;-76
2023/09/09 07:24:46;;;;;;;151.82;137.85;;;18.30;99.90;;;;;;6182662;23;20140;-76
2023/09/09 07:27:12;;;;;;;210.15;164.75;;;18.40;99.90;;;;;;6182519;23;20043;-76
2023/09/09 07:29:37;;;;;;;151.45;136.05;;;18.50;99.90;;;;;;6156861;23;20005;-76
2023/09/09 07:32:03;;;;;;;137.32;125.47;;;18.50;99.90;;;;;;6158020;23;20008;-76
2023/09/09 07:34:28;;;;;;;131.50;119.75;;;18.70;99.90;;;;;;6182796;23;20013;-76
2023/09/09 07:36:54;;;;;;;151.77;137.50;;;18.70;99.90;;;;;;6157796;23;20005;-76
2023/09/09 07:39:20;;;;;;;136.00;123.80;;;18.90;99.90;;;;;;6182758;23;20087;-76
2023/09/09 07:41:45;;;;;;;133.75;122.03;;;18.90;99.90;;;;;;6157661;23;20338;-77
2023/09/09 07:44:11;;;;;;;137.07;124.63;;;19.00;99.90;;;;;;6157791;23;20381;-76
2023/09/09 07:46:36;;;;;;;128.15;117.07;;;19.10;99.90;;;;;;6133226;23;20386;-76
2023/09/09 07:49:02;;;;;;;115.80;106.30;;;19.20;99.90;;;;;;6158011;23;20027;-76
2023/09/09 07:51:28;;;;;;;111.90;102.45;;;19.20;99.90;;;;;;6157887;23;20013;-76
2023/09/09 07:53:54;;;;;;;120.07;109.90;;;19.30;99.90;;;;;;6182693;23;20005;-76
2023/09/09 07:56:19;;;;;;;129.07;117.30;;;19.40;99.90;;;;;;6157480;23;20059;-76
2023/09/09 07:58:45;;;;;;;116.60;106.75;;;19.50;99.90;;;;;;6157411;23;20017;-76
2023/09/09 08:01:11;;;;;;;112.93;103.65;;;19.60;99.90;;;;;;6157835;23;20013;-76
2023/09/09 08:03:37;;;;;;;114.13;104.57;;;19.60;99.90;;;;;;6157760;23;20064;-76
2023/09/09 08:06:06;;;;;;;121.78;111.30;;;19.80;99.90;;;;;;6182101;23;20017;-76
2023/09/09 08:08:32;;;;;;;112.68;102.90;;;19.90;99.90;;;;;;6157243;23;20092;-76
2023/09/09 08:10:58;;;;;;;122.45;111.47;;;20.00;99.90;;;;;;6133152;23;20446;-76
2023/09/09 08:13:25;;;;;;;107.85;98.88;;;20.00;99.90;;;;;;6182457;23;20020;-76
2023/09/09 08:15:50;;;;;;;106.57;97.80;;;20.10;99.90;;;;;;6157437;23;20043;-76
2023/09/09 08:18:16;;;;;;;110.15;101.22;;;20.30;99.90;;;;;;6157698;23;20382;-76
2023/09/09 08:20:57;;;;;;;106.75;97.72;;;20.30;99.90;;;;;;6160029;23;20028;-79
2023/09/09 08:23:54;;;;;;;105.30;96.45;;;20.40;99.90;;;;;;6137450;23;20472;-79
2023/09/09 08:26:30;;;;;;;90.75;83.18;;;20.50;99.90;;;;;;6138460;23;20013;-80
2023/09/09 08:29:07;;;;;;;104.80;96.35;;;20.60;99.90;;;;;;6163575;23;20091;-80
2023/09/09 08:31:47;;;;;;;95.22;87.40;;;20.70;99.90;;;;;;6134337;23;20442;-80
2023/09/09 08:34:23;;;;;;;101.60;93.35;;;20.80;99.90;;;;;;6134795;23;20465;-80
2023/09/09 08:37:12;;;;;;;112.97;103.63;;;20.90;99.90;;;;;;6133653;23;20040;-80
2023/09/09 08:40:06;;;;;;;79.15;72.95;;;21.30;99.90;;;;;;6135160;23;20449;-80
2023/09/09 08:43:06;;;;;;;81.57;74.72;;;22.00;99.90;;;;;;6136984;23;20505;-80
2023/09/09 08:45:42;;;;;;;98.07;90.03;;;22.70;99.90;;;;;;6118512;23;20014;-80
2023/09/09 08:48:17;;;;;;;70.72;65.25;;;23.10;99.90;;;;;;6110815;23;20013;-80
2023/09/09 08:51:04;;;;;;;65.65;60.55;;;23.50;99.90;;;;;;6134407;23;20010;-80
2023/09/09 08:53:38;;;;;;;69.38;63.90;;;23.80;99.90;;;;;;6134943;23;20018;-80
2023/09/09 08:56:08;;;;;;;60.92;56.05;;;24.20;99.90;;;;;;6134645;23;20021;-80
2023/09/09 09:00:04;;;;;;;58.60;54.10;;;24.50;99.90;;;;;;6090834;23;20476;-80
2023/09/09 09:03:56;;;;;;;61.45;56.45;;;24.90;99.90;;;;;;6042154;23;20044;-80
2023/09/09 09:07:38;;;;;;;57.50;52.95;;;25.10;99.90;;;;;;6084218;23;20041;-80
2023/09/09 09:19:03;;;;;;;52.63;48.45;;;25.70;99.90;;;;;;6128663;23;20049;-80
2023/09/09 09:30:11;;;;;;;44.45;40.83;;;27.30;99.90;;;;;;6078728;23;20026;-80
2023/09/09 09:32:44;;;;;;;45.08;41.45;;;27.90;99.90;;;;;;6102535;23;20073;-80
2023/09/09 09:35:38;;;;;;;44.75;41.25;;;28.30;99.90;;;;;;6103713;23;20061;-80
2023/09/09 09:38:17;;;;;;;42.10;38.85;;;28.50;99.90;;;;;;6134185;23;20013;-80
2023/09/09 09:44:34;;;;;;;41.15;37.95;;;28.40;99.90;;;;;;6131239;23;20021;-80
2023/09/09 09:47:08;;;;;;;41.08;37.75;;;28.40;99.90;;;;;;6132970;23;20025;-80
2023/09/09 09:50:06;;;;;;;42.22;38.92;;;28.30;99.90;;;;;;6144240;23;20068;-80
2023/09/09 09:52:57;;;;;;;41.20;38.00;;;28.30;99.90;;;;;;6123176;23;20022;-80
2023/09/09 09:55:33;;;;;;;41.95;38.55;;;28.30;99.90;;;;;;6108047;23;20071;-80
2023/09/09 09:58:32;;;;;;;39.20;36.20;;;28.20;99.90;;;;;;6155681;23;20089;-80
2023/09/09 10:01:25;;;;;;;39.25;36.22;;;28.10;99.90;;;;;;6111312;23;20014;-81
2023/09/09 10:04:05;;;;;;;41.45;38.15;;;28.20;99.90;;;;;;6128843;23;20108;-80
2023/09/09 10:06:41;;;;;;;43.15;39.58;;;28.20;99.90;;;;;;6134759;23;20013;-80
2023/09/09 10:09:18;;;;;;;41.47;38.05;;;28.30;99.90;;;;;;6135301;23;20335;-80
2023/09/09 10:12:34;;;;;;;42.75;39.35;;;28.30;99.90;;;;;;6132717;23;20052;-80
2023/09/09 10:15:11;;;;;;;45.10;41.22;;;28.40;99.90;;;;;;6097047;23;20010;-80
2023/09/09 10:17:52;;;;;;;;;;;;;;;;;;;;;
2023/09/09 10:20:40;;;;;;;48.22;44.25;;;28.50;99.90;;;;;;6133320;23;20017;-80
2023/09/09 10:23:07;;;;;;;51.15;46.83;;;28.50;99.90;;;;;;6131181;23;20021;-80
2023/09/09 10:26:04;;;;;;;58.13;53.03;;;28.50;99.90;;;;;;6101198;23;20017;-80
2023/09/09 10:28:45;;;;;;;56.83;51.83;;;28.60;99.90;;;;;;6132681;23;20068;-80
2023/09/09 10:31:55;;;;;;;57.55;52.22;;;28.70;99.90;;;;;;6132301;23;20049;-80
2023/09/09 10:34:39;;;;;;;53.13;48.40;;;28.70;99.90;;;;;;6156601;23;20017;-80
2023/09/09 10:37:19;;;;;;;;;;;;;;;;;;;;;
2023/09/09 10:39:56;;;;;;;53.85;49.17;;;28.60;99.90;;;;;;6132315;23;20013;-80
2023/09/09 10:42:47;;;;;;;56.17;51.33;;;28.70;99.90;;;;;;6135231;23;20014;-80
2023/09/09 10:45:28;;;;;;;55.83;50.97;;;28.70;99.90;;;;;;6102684;23;20014;-80
2023/09/09 10:48:12;;;;;;;55.53;50.92;;;29.00;99.90;;;;;;6128234;23;20049;-80
2023/09/09 10:54:20;;;;;;;52.80;48.10;;;29.30;99.90;;;;;;6118099;23;20052;-80
2023/09/09 10:57:02;;;;;;;49.88;45.50;;;29.50;99.90;;;;;;6132095;23;20041;-80
2023/09/09 10:59:51;;;;;;;44.35;40.25;;;29.60;99.90;;;;;;6106278;23;20018;-80
2023/09/09 11:02:47;;;;;;;38.78;35.47;;;29.70;99.90;;;;;;6133761;23;20018;-80
2023/09/09 11:05:27;;;;;;;32.03;29.17;;;29.80;99.90;;;;;;6130225;23;20044;-80
2023/09/09 11:07:59;;;;;;;24.90;22.65;;;29.60;99.90;;;;;;6132148;23;20013;-79
2023/09/09 11:10:30;;;;;;;23.43;21.33;;;29.70;99.90;;;;;;6106237;23;20021;-80
2023/09/09 11:13:07;;;;;;;19.38;17.77;;;29.60;99.90;;;;;;6129508;23;20093;-80
2023/09/09 11:16:05;;;;;;;18.08;16.58;;;29.50;99.90;;;;;;6112054;23;20045;-80
2023/09/09 11:18:51;;;;;;;16.50;15.05;;;29.60;99.90;;;;;;6130780;23;20458;-80
2023/09/09 11:21:34;;;;;;;14.82;13.52;;;29.70;99.90;;;;;;6106097;23;20017;-80
2023/09/09 11:24:17;;;;;;;14.88;12.32;;;29.70;99.90;;;;;;6129291;23;20020;-80
2023/09/09 11:26:55;;;;;;;12.43;11.43;;;29.90;99.90;;;;;;6129978;23;20123;-80
2023/09/09 11:29:34;;;;;;;11.55;10.55;;;30.20;99.90;;;;;;6130593;23;20017;-81
2023/09/09 11:32:11;;;;;;;11.55;10.57;;;30.50;99.90;;;;;;6084157;23;20018;-80
2023/09/09 11:34:46;;;;;;;12.88;11.75;;;30.50;99.90;;;;;;6140952;23;20021;-81
2023/09/09 11:37:22;;;;;;;11.38;10.27;;;30.50;99.90;;;;;;6153801;23;20108;-80
2023/09/09 11:40:04;;;;;;;11.48;10.38;;;30.50;99.90;;;;;;6133811;23;20068;-80
2023/09/09 11:42:36;;;;;;;10.98;9.98;;;30.50;99.90;;;;;;6157434;23;20017;-80
2023/09/09 11:45:49;;;;;;;12.02;11.07;;;30.50;99.90;;;;;;6157517;23;20325;-81
2023/09/09 11:48:26;;;;;;;12.05;10.85;;;30.50;99.90;;;;;;6110678;23;20009;-80
2023/09/09 11:51:15;;;;;;;12.50;11.30;;;30.50;99.90;;;;;;6149757;23;20298;-80
2023/09/09 11:53:49;;;;;;;11.32;10.23;;;30.50;93.20;;;;;;6130792;23;20013;-80
2023/09/09 11:56:37;;;;;;;12.93;11.82;;;30.50;93.50;;;;;;6132159;23;20013;-80
2023/09/09 11:59:13;;;;;;;12.05;11.07;;;30.50;82.30;;;;;;6132526;23;20021;-80
2023/09/09 12:01:44;;;;;;;11.93;10.02;;;30.50;80.20;;;;;;6108697;23;20017;-80
2023/09/09 12:04:13;;;;;;;12.55;11.45;;;30.50;96.00;;;;;;6131527;23;20020;-80
2023/09/09 12:07:07;;;;;;;12.02;11.02;;;30.50;91.90;;;;;;6156712;23;20076;-80
2023/09/09 12:09:46;;;;;;;12.05;10.90;;;30.80;99.10;;;;;;6156849;23;20014;-81
2023/09/09 12:12:15;;;;;;;13.80;12.55;;;31.10;99.30;;;;;;6132904;23;20018;-81
2023/09/09 12:14:41;;;;;;;14.25;12.82;;;31.40;99.80;;;;;;6133534;23;20037;-81
2023/09/09 12:17:08;;;;;;;14.10;12.90;;;31.60;96.30;;;;;;6108106;23;20014;-80
2023/09/09 12:19:34;;;;;;;13.70;12.70;;;31.70;81.60;;;;;;6131237;23;20457;-81
2023/09/09 12:22:00;;;;;;;14.55;13.35;;;31.60;75.20;;;;;;6132031;23;20077;-79
2023/09/09 12:24:26;;;;;;;12.60;11.50;;;31.40;76.40;;;;;;6129160;23;20049;-80
2023/09/09 12:26:56;;;;;;;12.02;10.93;;;31.30;81.50;;;;;;6129251;23;20107;-80
2023/09/09 12:29:22;;;;;;;12.20;11.10;;;31.30;96.50;;;;;;6131359;23;20024;-80
2023/09/09 12:31:51;;;;;;;12.38;11.18;;;31.30;97.20;;;;;;6131542;23;20017;-80
2023/09/09 12:34:22;;;;;;;12.35;11.15;;;31.40;98.60;;;;;;6105783;23;20018;-80
2023/09/09 12:36:49;;;;;;;15.32;13.27;;;31.40;95.90;;;;;;6129043;23;20032;-79
2023/09/09 12:39:33;;;;;;;12.52;11.40;;;31.50;79.70;;;;;;6128833;23;20024;-79
2023/09/09 12:42:02;;;;;;;13.82;12.63;;;31.40;92.20;;;;;;6130056;23;20016;-80
2023/09/09 12:44:50;;;;;;;13.88;12.57;;;31.50;97.70;;;;;;6129762;23;20025;-83
2023/09/09 12:47:23;;;;;;;12.52;11.38;;;31.60;96.60;;;;;;6159933;23;20547;-80
2023/09/09 12:49:52;;;;;;;11.60;10.65;;;31.50;86.20;;;;;;6085091;23;20076;-80
2023/09/09 12:52:18;;;;;;;10.48;9.48;;;31.30;81.50;;;;;;6128675;23;20074;-80
2023/09/09 12:54:48;;;;;;;13.40;9.93;;;31.20;87.30;;;;;;6104609;23;20014;-80
2023/09/09 12:57:16;;;;;;;11.05;10.00;;;31.10;97.10;;;;;;6104821;23;20013;-81
2023/09/09 12:59:44;;;;;;;11.73;10.80;;;31.20;96.40;;;;;;6104750;23;20045;-81
2023/09/09 13:02:11;;;;;;;10.18;9.25;;;31.40;91.80;;;;;;6129122;23;20157;-80
2023/09/09 13:04:41;;;;;;;10.45;9.45;;;31.50;95.10;;;;;;6127960;23;20028;-81
2023/09/09 13:07:16;;;;;;;10.50;9.50;;;31.50;92.20;;;;;;6127601;23;20097;-81
2023/09/09 13:09:42;;;;;;;10.70;9.70;;;31.70;94.20;;;;;;6151555;23;20095;-81
2023/09/09 13:12:08;;;;;;;10.20;9.20;;;32.10;88.10;;;;;;6128259;23;20021;-81